Kansas City International Airport
KMCI : rendu visible

Aérodrome :











RETROUVEZ-NOUS SUR...

 
LOGIN :

S'inscrire | Disclaimer

   EN    FR    IT 

 









Légende :    VFR   VFR Marginal   IFR   IFR Intensif   IFR Très Intensif
Visi : 
Plafond : 
>= 8 km
>= 3000ft
5 à 8 km
1000 à 3000 ft
1500m à 5 km
500 à 1000 ft
800 à 1500m
200 à 500 ft
< 800m
< 200 ft
Symboles :   Orages  Brouillard  Fortes neiges  Fortes précipitations  Vent > 20 kt






- Altitude de l'aérodrome : 1026 ft
- Code IATA : MCI


KMCI - Kansas City International

DERNIER METAR :
  • 191253Z 27008KT 10SM FEW250 04/03 A2988 RMK AO2 SLP121 T00440028 $

METARs EXPIRÉS :
  • 191153Z 27007KT 10SM CLR 05/03 A2985 RMK AO2 SLP107 T00500033 10100 20050 51012 $
  • 191053Z 28007KT 10SM CLR 06/03 A2984 RMK AO2 SLP103 T00610033 $

TAF KMCI
Valide du 19 à 12h jusqu'au 20 à 12h UTC


191124Z 1912/2012 28007KT P6SM FEW250
FM200000 12006KT P6SM SCT250



MET'MAP, la Météo Aéronautique d'un coup d'oeil ! - Copyright ORBIFLY Décembre 2007 - Disclaimer

ORBIFLY MET'MAP TEAM :

Programmation & Développement : Alexandra Zaïnal
Conception & Développement : Baudouin d'Aumeries
Co-Programmation & Développement : Marc-Olivier Méhu
Soutien technique & logistique : Manuel Goepfert

Contact : metmap@orbifly.com




SOURCES & CREDITS :

   NOAA       Earth
Advisory